Aviation Digital Data Service (ADDS)

Output produced by METARs form (1827 UTC 22 November 2017)
found at http://www.aviationweather.gov/adds/metars/
 
LPAR 221700Z /////KT CAVOK 18/14 Q1012
TAF LPAR 221413Z 2215/2224 VRB02KT 9999 FEW025 
     PROB40 
     TEMPO 2215/2224 18010KT
       
LPAZ 221800Z 31014KT 4500 -DZ BR FEW004 SCT014 BKN020 17/16 Q1009
TAF LPAZ 221700Z 2218/2324 30010KT 9999 SCT012 SCT030 
     BECMG 2222/2224 26010KT FEW020 SCT045 
     BECMG 2309/2311 VRB05KT 
     PROB30 
     TEMPO 2309/2318 6000 -RA SCT005 BKN012
       
LPBJ 221800Z 16008KT CAVOK 18/07 Q1014
TAF LPBJ 221710Z 2218/2318 19010KT CAVOK 
     PROB40 2300/2304 2000 BCFG SCT002 
     PROB40 2304/2309 0400 FG BKN002 
     BECMG 2306/2308 16015KT SCT014 BKN020 
     TEMPO 2309/2318 16015G28KT 
     TEMPO 2314/2318 4000 RA SCT009 BKN014
       
LPCS 221800Z 17009KT 9000 FEW009 SCT014 17/16 Q1012
LPFL 221800Z VRB05KT 9999 -SHRA SCT017 SCT019CB 15/10 Q1006
LPFR 221800Z 08003KT CAVOK 18/15 Q1014
TAF LPFR 221700Z 2218/2318 13010KT CAVOK 
     BECMG 2218/2220 VRB03KT 9999 SCT015 
     BECMG 2305/2308 08008KT 
     BECMG 2310/2313 18012KT CAVOK 
     BECMG 2315/2318 21012KT 9999 BKN030
       
LPHR 221800Z 26013KT 9999 FEW025 18/11 Q1008
LPLA 221800Z /////KT 9999 FEW025 SCT030 18/12 Q1008
TAF LPLA 221701Z 2218/2318 30010KT 9999 FEW025 SCT040 
     TEMPO 2218/2318 8000 -SHRA SCT022 BKN030 
     BECMG 2308/2311 05005KT
       
LPMA 221800Z 23004KT 9999 SCT014 SCT030 21/17 Q1010
TAF LPMA 221700Z 2218/2318 VRB05KT 9999 SCT015 SCT030 
     BECMG 2308/2310 24012KT
       
LPMR 221800Z 17009KT CAVOK 18/09 Q1010
TAF LPMR 221711Z 2218/2318 16010KT 9999 SCT025 
     TEMPO 2218/2222 17012G22KT SCT015 BKN030 
     TEMPO 2222/2314 4000 SHRA SCT012 BKN018 
     TEMPO 2306/2317 16015G25KT 
     TEMPO 2314/2318 2500 RADZ BR SCT006 BKN009
       
LPMT 221800Z 19013KT CAVOK 19/14 Q1011
TAF LPMT 221713Z 2218/2318 18012KT 9999 FEW025 
     PROB40 
     TEMPO 2222/2312 VRB02KT 
     TEMPO 2306/2312 4000 SHRA SCT010 BKN018 
     TEMPO 2312/2318 20018G30KT 2000 RADZ BR SCT005 BKN009
       
LPOV 221800Z 18014KT 9999 FEW020 19/07 Q1008
TAF LPOV 221710Z 2218/2318 18012KT 9999 FEW020 SCT040 
     TEMPO 2218/2317 18015G25KT 
     PROB30 
     TEMPO 2218/2303 18018G30KT 
     TEMPO 2221/2309 2500 RADZ BR SCT006 BKN009 
     TEMPO 2312/2318 3500 RA SCT009 BKN014
       
LPPD 221800Z 31007KT 9999 FEW022 BKN045 18/12 Q1009
TAF LPPD 221700Z 2218/2318 29008KT 9999 SCT018 SCT035 
     BECMG 2219/2221 26010KT 
     PROB30 
     TEMPO 2306/2318 6000 -RA SCT006 BKN015 
     BECMG 2308/2310 VRB05KT
       
LPPR 221800Z 19018KT 9999 FEW040 19/07 Q1008 WS ALL RWY
TAF LPPR 221700Z 2218/2318 18013KT 9999 FEW035 
     PROB30 
     TEMPO 2218/2303 18018G30KT 
     BECMG 2221/2223 6000 -RA SCT015 BKN025 
     BECMG 2301/2303 3000 RADZ BR SCT002 BKN004 
     TEMPO 2303/2309 0150 DZ FG VV001 
     BECMG 2310/2312 9999 NSW SCT006 BKN015
       
LPPS 221800Z 29018KT 9999 BKN012 FEW016CB 20/18 Q1010
TAF LPPS 221700Z 2218/2324 28012KT 9999 SCT013 SCT030 
     BECMG 2219/2221 30007KT SCT015 
     BECMG 2302/2304 VRB05KT
       
LPPT 221800Z 20015KT 9999 FEW018 18/14 Q1012
TAF LPPT 221700Z 2218/2324 20012KT 9999 FEW020 
     BECMG 2304/2307 15007KT 
     BECMG 2311/2313 18015KT 6000 -RA SCT012 BKN025 
     TEMPO 2313/2316 2000 RADZ BR SCT002 BKN005 
     BECMG 2316/2318 23008KT 9999 NSW BKN012 
     TEMPO 2318/2324 SCT006
       
LPST 221700Z 17018KT 9999 FEW009 BKN035 18/15 Q1011
TAF LPST 221409Z 2215/2224 17015KT 9999 FEW014 SCT025 
     TEMPO 2215/2224 18015G25KT 
     PROB40 
     TEMPO 2215/2218 18020G30KT FEW009 BKN025
       
LPAR 221700Z /////KT CAVOK 18/14 Q1012
TAF LPAR 221413Z 2215/2224 VRB02KT 9999 FEW025 
     PROB40 
     TEMPO 2215/2224 18010KT
       
LPBJ 221800Z 16008KT CAVOK 18/07 Q1014
TAF LPBJ 221710Z 2218/2318 19010KT CAVOK 
     PROB40 2300/2304 2000 BCFG SCT002 
     PROB40 2304/2309 0400 FG BKN002 
     BECMG 2306/2308 16015KT SCT014 BKN020 
     TEMPO 2309/2318 16015G28KT 
     TEMPO 2314/2318 4000 RA SCT009 BKN014
       
LPCS 221800Z 17009KT 9000 FEW009 SCT014 17/16 Q1012
LPFR 221800Z 08003KT CAVOK 18/15 Q1014
TAF LPFR 221700Z 2218/2318 13010KT CAVOK 
     BECMG 2218/2220 VRB03KT 9999 SCT015 
     BECMG 2305/2308 08008KT 
     BECMG 2310/2313 18012KT CAVOK 
     BECMG 2315/2318 21012KT 9999 BKN030
       
LPFL 221800Z VRB05KT 9999 -SHRA SCT017 SCT019CB 15/10 Q1006
LPHR 221800Z 26013KT 9999 FEW025 18/11 Q1008
LPLA 221800Z /////KT 9999 FEW025 SCT030 18/12 Q1008
TAF LPLA 221701Z 2218/2318 30010KT 9999 FEW025 SCT040 
     TEMPO 2218/2318 8000 -SHRA SCT022 BKN030 
     BECMG 2308/2311 05005KT
       
LPPT 221800Z 20015KT 9999 FEW018 18/14 Q1012
TAF LPPT 221700Z 2218/2324 20012KT 9999 FEW020 
     BECMG 2304/2307 15007KT 
     BECMG 2311/2313 18015KT 6000 -RA SCT012 BKN025 
     TEMPO 2313/2316 2000 RADZ BR SCT002 BKN005 
     BECMG 2316/2318 23008KT 9999 NSW BKN012 
     TEMPO 2318/2324 SCT006
       
LPMA 221800Z 23004KT 9999 SCT014 SCT030 21/17 Q1010
TAF LPMA 221700Z 2218/2318 VRB05KT 9999 SCT015 SCT030 
     BECMG 2308/2310 24012KT
       
LPMR 221800Z 17009KT CAVOK 18/09 Q1010
TAF LPMR 221711Z 2218/2318 16010KT 9999 SCT025 
     TEMPO 2218/2222 17012G22KT SCT015 BKN030 
     TEMPO 2222/2314 4000 SHRA SCT012 BKN018 
     TEMPO 2306/2317 16015G25KT 
     TEMPO 2314/2318 2500 RADZ BR SCT006 BKN009
       
LPMT 221800Z 19013KT CAVOK 19/14 Q1011
TAF LPMT 221713Z 2218/2318 18012KT 9999 FEW025 
     PROB40 
     TEMPO 2222/2312 VRB02KT 
     TEMPO 2306/2312 4000 SHRA SCT010 BKN018 
     TEMPO 2312/2318 20018G30KT 2000 RADZ BR SCT005 BKN009
       
LPOV 221800Z 18014KT 9999 FEW020 19/07 Q1008
TAF LPOV 221710Z 2218/2318 18012KT 9999 FEW020 SCT040 
     TEMPO 2218/2317 18015G25KT 
     PROB30 
     TEMPO 2218/2303 18018G30KT 
     TEMPO 2221/2309 2500 RADZ BR SCT006 BKN009 
     TEMPO 2312/2318 3500 RA SCT009 BKN014
       
LPPD 221800Z 31007KT 9999 FEW022 BKN045 18/12 Q1009
TAF LPPD 221700Z 2218/2318 29008KT 9999 SCT018 SCT035 
     BECMG 2219/2221 26010KT 
     PROB30 
     TEMPO 2306/2318 6000 -RA SCT006 BKN015 
     BECMG 2308/2310 VRB05KT
       
LPPR 221800Z 19018KT 9999 FEW040 19/07 Q1008 WS ALL RWY
TAF LPPR 221700Z 2218/2318 18013KT 9999 FEW035 
     PROB30 
     TEMPO 2218/2303 18018G30KT 
     BECMG 2221/2223 6000 -RA SCT015 BKN025 
     BECMG 2301/2303 3000 RADZ BR SCT002 BKN004 
     TEMPO 2303/2309 0150 DZ FG VV001 
     BECMG 2310/2312 9999 NSW SCT006 BKN015
       
LPPS 221800Z 29018KT 9999 BKN012 FEW016CB 20/18 Q1010
TAF LPPS 221700Z 2218/2324 28012KT 9999 SCT013 SCT030 
     BECMG 2219/2221 30007KT SCT015 
     BECMG 2302/2304 VRB05KT
       
LPAZ 221800Z 31014KT 4500 -DZ BR FEW004 SCT014 BKN020 17/16 Q1009
TAF LPAZ 221700Z 2218/2324 30010KT 9999 SCT012 SCT030 
     BECMG 2222/2224 26010KT FEW020 SCT045 
     BECMG 2309/2311 VRB05KT 
     PROB30 
     TEMPO 2309/2318 6000 -RA SCT005 BKN012
       
LPST 221700Z 17018KT 9999 FEW009 BKN035 18/15 Q1011
TAF LPST 221409Z 2215/2224 17015KT 9999 FEW014 SCT025 
     TEMPO 2215/2224 18015G25KT 
     PROB40 
     TEMPO 2215/2218 18020G30KT FEW009 BKN025